Time;durP1;ratioP1;P1;durP2;ratioP2;P2;SDS_P1;SDS_P2;PMS_P1;PMS_P2;Temp;Humidity;BMP_temperature;BMP_pressure;BME280_temperature;BME280_humidity;BME280_pressure;Samples;Min_cycle;Max_cycle;Signal;HPM_P1;HPM_P2
2021/09/05 00:00:36;;;;;;;39.60;31.47;;;15.00;1.00;;;;;;5051782;28;20182;-57
2021/09/05 00:03:02;;;;;;;43.43;33.30;;;15.00;1.00;;;;;;5049003;28;20665;-58
2021/09/05 00:05:29;;;;;;;33.60;28.83;;;14.90;1.00;;;;;;5051032;28;20252;-58
2021/09/05 00:07:55;;;;;;;34.03;29.10;;;14.90;1.00;;;;;;5054499;28;20176;-57
2021/09/05 00:10:21;;;;;;;37.73;29.40;;;15.00;1.00;;;;;;5052192;28;20498;-58
2021/09/05 00:12:46;;;;;;;36.77;29.53;;;15.00;1.00;;;;;;5051561;28;20452;-58
2021/09/05 00:15:13;;;;;;;38.53;29.77;;;15.00;1.00;;;;;;5051957;28;20539;-57
2021/09/05 00:17:39;;;;;;;31.30;26.30;;;14.90;1.00;;;;;;5056526;28;20238;-58
2021/09/05 00:20:06;;;;;;;35.30;26.37;;;14.90;1.00;;;;;;5058645;28;20497;-57
2021/09/05 00:22:32;;;;;;;32.60;27.90;;;14.90;1.00;;;;;;5055107;28;20203;-59
2021/09/05 00:24:57;;;;;;;32.20;26.50;;;14.90;1.00;;;;;;5050196;28;20439;-58
2021/09/05 00:27:23;;;;;;;33.40;26.90;;;14.80;1.00;;;;;;5061408;28;20489;-57
2021/09/05 00:29:49;;;;;;;36.53;28.07;;;14.80;1.00;;;;;;5050087;28;20206;-58
2021/09/05 00:32:14;;;;;;;31.50;24.80;;;14.80;1.00;;;;;;5050784;28;20191;-58
2021/09/05 00:34:40;;;;;;;34.40;26.40;;;14.80;1.00;;;;;;5049967;28;20268;-59
2021/09/05 00:37:05;;;;;;;31.00;23.47;;;14.70;1.00;;;;;;5051073;28;20239;-59
2021/09/05 00:39:31;;;;;;;34.37;23.77;;;14.60;1.00;;;;;;5050534;28;20196;-58
2021/09/05 00:41:56;;;;;;;28.93;23.30;;;14.60;1.00;;;;;;5051080;28;20184;-58
2021/09/05 00:44:22;;;;;;;30.27;24.13;;;14.50;1.00;;;;;;5045453;28;20654;-56
2021/09/05 00:46:47;;;;;;;31.73;23.10;;;14.40;1.00;;;;;;5047331;28;20705;-59
2021/09/05 00:49:13;;;;;;;28.47;23.60;;;14.50;1.00;;;;;;5051013;28;20299;-58
2021/09/05 00:51:41;;;;;;;29.13;23.93;;;14.50;1.00;;;;;;5049939;28;20259;-59
2021/09/05 00:54:09;;;;;;;33.93;24.87;;;14.50;1.00;;;;;;5049973;28;20181;-57
2021/09/05 00:56:37;;;;;;;28.90;23.60;;;14.60;1.00;;;;;;5049150;28;20496;-57
2021/09/05 00:59:11;;;;;;;28.70;22.27;;;14.50;1.00;;;;;;5049679;28;20451;-58
2021/09/05 01:01:37;;;;;;;27.23;22.40;;;14.40;1.00;;;;;;5053362;28;20426;-58
2021/09/05 01:04:03;;;;;;;32.07;24.83;;;14.50;1.00;;;;;;5064018;28;20495;-58
2021/09/05 01:06:30;;;;;;;29.43;23.07;;;14.40;1.00;;;;;;5051034;28;20181;-57
2021/09/05 01:08:57;;;;;;;28.90;22.23;;;14.30;1.00;;;;;;5051164;28;20478;-58
2021/09/05 01:11:23;;;;;;;28.03;21.10;;;14.30;1.00;;;;;;5050094;28;20469;-57
2021/09/05 01:13:49;;;;;;;32.40;22.60;;;14.30;1.00;;;;;;5051417;28;20554;-58
2021/09/05 01:16:36;;;;;;;27.20;21.30;;;14.30;1.00;;;;;;5050314;28;20453;-58
2021/09/05 01:19:13;;;;;;;26.53;21.00;;;14.20;1.00;;;;;;5051110;28;20496;-57
2021/09/05 01:21:40;;;;;;;26.47;19.60;;;14.20;1.00;;;;;;5049710;28;20940;-58
2021/09/05 01:24:06;;;;;;;25.13;20.83;;;14.20;1.00;;;;;;5050785;28;20438;-57
2021/09/05 01:26:34;;;;;;;28.67;22.13;;;14.10;1.00;;;;;;5053045;28;20442;-59
2021/09/05 01:29:00;;;;;;;26.57;21.60;;;14.10;1.00;;;;;;5050883;28;20488;-57
2021/09/05 01:31:54;;;;;;;31.60;22.90;;;14.00;1.00;;;;;;5048823;28;20439;-58
2021/09/05 01:34:22;;;;;;;33.20;23.77;;;14.10;1.00;;;;;;5048484;28;20456;-58
2021/09/05 01:36:49;;;;;;;39.83;27.63;;;14.10;1.00;;;;;;5050224;28;20438;-57
2021/09/05 01:39:17;;;;;;;43.00;30.40;;;14.00;1.00;;;;;;5057093;28;20628;-58
2021/09/05 01:41:44;;;;;;;50.47;29.80;;;14.00;1.00;;;;;;5050393;28;20425;-59
2021/09/05 01:44:15;;;;;;;49.77;30.43;;;14.10;1.00;;;;;;5054068;28;20545;-59
2021/09/05 01:46:40;;;;;;;53.47;33.03;;;14.10;1.00;;;;;;5050132;28;20439;-57
2021/09/05 01:49:06;;;;;;;65.77;35.60;;;14.20;1.00;;;;;;5055285;28;20471;-59
2021/09/05 01:51:33;;;;;;;65.23;35.03;;;14.20;1.00;;;;;;5050219;28;20217;-58
2021/09/05 01:53:58;;;;;;;55.33;34.20;;;14.30;1.00;;;;;;5048859;28;20207;-57
2021/09/05 01:56:26;;;;;;;65.33;35.27;;;14.30;1.00;;;;;;5050457;28;20431;-57
2021/09/05 01:58:52;;;;;;;58.30;34.97;;;14.30;4.40;;;;;;5049911;28;20189;-58
2021/09/05 02:01:17;;;;;;;69.57;37.37;;;14.40;7.10;;;;;;5053909;28;20444;-59
2021/09/05 02:03:43;;;;;;;64.93;36.77;;;14.50;12.00;;;;;;5065390;28;20180;-57
2021/09/05 02:06:08;;;;;;;60.10;36.33;;;14.50;12.60;;;;;;5050871;28;20188;-58
2021/09/05 02:08:34;;;;;;;50.77;35.60;;;14.60;14.20;;;;;;5049839;28;20311;-57
2021/09/05 02:10:59;;;;;;;47.40;33.17;;;14.50;14.20;;;;;;5049852;28;20181;-58
2021/09/05 02:13:25;;;;;;;59.50;33.90;;;14.60;13.90;;;;;;5048690;28;20181;-59
2021/09/05 02:15:50;;;;;;;51.73;34.13;;;14.70;10.30;;;;;;5047711;28;20649;-58
2021/09/05 02:18:18;;;;;;;51.20;33.97;;;14.70;4.10;;;;;;5061692;28;20334;-56
2021/09/05 02:20:43;;;;;;;48.60;33.93;;;14.80;3.10;;;;;;5056046;28;20262;-58
2021/09/05 02:23:09;;;;;;;50.57;34.10;;;14.80;1.00;;;;;;5049454;28;20517;-57
2021/09/05 02:25:34;;;;;;;47.30;34.23;;;14.90;1.00;;;;;;5050052;28;20541;-57
2021/09/05 02:28:00;;;;;;;49.67;34.50;;;14.90;1.00;;;;;;5048430;28;20361;-58
2021/09/05 02:30:25;;;;;;;51.97;35.60;;;14.90;1.00;;;;;;5051489;28;20227;-57
2021/09/05 02:32:51;;;;;;;52.23;35.53;;;14.90;1.00;;;;;;5044569;28;20481;-57
2021/09/05 02:35:17;;;;;;;47.63;35.50;;;14.90;1.00;;;;;;5049425;28;20575;-59
2021/09/05 02:37:42;;;;;;;52.70;35.80;;;14.90;1.00;;;;;;5048440;28;20357;-59
2021/09/05 02:40:09;;;;;;;52.13;38.43;;;15.00;1.00;;;;;;5038415;28;20870;-56
2021/09/05 02:42:35;;;;;;;54.30;36.47;;;14.90;1.00;;;;;;5047756;28;20243;-57
2021/09/05 02:45:03;;;;;;;59.27;38.90;;;14.90;1.00;;;;;;5059566;28;20425;-57
2021/09/05 02:47:28;;;;;;;57.67;37.40;;;15.00;1.00;;;;;;5049079;28;20439;-57
2021/09/05 02:49:54;;;;;;;62.37;39.63;;;15.00;1.00;;;;;;5048176;28;20463;-57
2021/09/05 02:52:20;;;;;;;60.90;37.67;;;15.00;1.00;;;;;;5049452;28;20189;-58
2021/09/05 02:54:45;;;;;;;70.37;40.87;;;15.00;1.00;;;;;;5049453;28;20434;-59
2021/09/05 02:57:11;;;;;;;87.00;38.53;;;15.10;1.00;;;;;;5049566;28;20180;-60
2021/09/05 02:59:36;;;;;;;92.90;41.07;;;15.10;1.00;;;;;;5057038;28;20701;-58
2021/09/05 03:02:02;;;;;;;63.13;40.23;;;15.00;1.00;;;;;;5048087;28;20229;-58
2021/09/05 03:04:28;;;;;;;57.07;39.53;;;15.10;1.00;;;;;;5060197;28;20923;-59
2021/09/05 03:06:54;;;;;;;92.53;41.20;;;15.10;1.00;;;;;;5048973;28;20220;-58
2021/09/05 03:09:20;;;;;;;92.33;41.20;;;15.00;1.00;;;;;;5057811;28;20455;-59
2021/09/05 03:11:45;;;;;;;72.30;42.87;;;14.90;1.00;;;;;;5050312;28;20443;-57
2021/09/05 03:14:11;;;;;;;65.27;41.07;;;15.00;1.00;;;;;;5049421;28;20184;-59
2021/09/05 03:16:36;;;;;;;78.40;40.67;;;14.90;1.90;;;;;;5044094;28;20227;-58
2021/09/05 03:19:02;;;;;;;67.80;40.07;;;15.00;4.50;;;;;;5051640;28;20180;-57
2021/09/05 03:21:28;;;;;;;70.03;41.70;;;15.00;1.30;;;;;;5062813;28;20215;-58
2021/09/05 03:23:53;;;;;;;62.83;41.20;;;15.00;5.10;;;;;;5054780;28;20549;-58
2021/09/05 03:26:19;;;;;;;68.77;42.27;;;14.90;7.60;;;;;;5051220;28;20519;-58
2021/09/05 03:28:44;;;;;;;78.13;39.43;;;15.00;8.20;;;;;;5052704;28;20685;-58
2021/09/05 03:31:10;;;;;;;67.63;41.73;;;15.10;2.80;;;;;;5053212;28;20331;-57
2021/09/05 03:33:35;;;;;;;73.40;42.90;;;15.00;5.60;;;;;;5053349;28;20191;-57
2021/09/05 03:36:01;;;;;;;72.40;42.60;;;15.00;6.20;;;;;;5052367;28;20227;-58
2021/09/05 03:38:27;;;;;;;69.00;41.13;;;15.10;10.10;;;;;;5051132;28;20327;-58
2021/09/05 03:40:52;;;;;;;79.87;40.43;;;15.10;8.30;;;;;;5052741;28;20176;-58
2021/09/05 03:43:18;;;;;;;78.50;40.57;;;15.10;5.10;;;;;;5052678;28;20189;-59
2021/09/05 03:45:43;;;;;;;73.27;40.87;;;15.10;5.00;;;;;;5054254;28;20185;-59
2021/09/05 03:48:09;;;;;;;62.33;38.17;;;15.00;6.30;;;;;;5052970;28;20193;-59
2021/09/05 03:50:34;;;;;;;61.07;39.93;;;15.40;13.30;;;;;;5057417;28;20196;-57
2021/09/05 03:53:00;;;;;;;64.03;38.30;;;15.10;10.90;;;;;;5051821;28;20188;-57
2021/09/05 03:55:26;;;;;;;68.83;40.07;;;15.10;6.30;;;;;;5052537;28;20186;-58
2021/09/05 03:57:52;;;;;;;62.80;38.77;;;15.00;5.10;;;;;;5050970;28;20192;-58
2021/09/05 04:00:18;;;;;;;52.93;35.63;;;15.00;8.00;;;;;;5057681;28;20449;-57
2021/09/05 04:02:43;;;;;;;54.10;35.00;;;15.00;5.00;;;;;;5046943;28;20705;-59
2021/09/05 04:05:10;;;;;;;58.93;35.00;;;14.90;4.70;;;;;;5049877;28;20192;-59
2021/09/05 04:07:39;;;;;;;62.83;35.03;;;15.20;5.40;;;;;;5058587;28;20207;-58
2021/09/05 04:10:08;;;;;;;44.50;29.97;;;14.90;1.90;;;;;;5060684;28;20459;-57
2021/09/05 04:12:34;;;;;;;46.57;30.63;;;14.90;1.00;;;;;;5056428;28;20443;-57
2021/09/05 04:15:00;;;;;;;55.30;31.33;;;14.70;1.00;;;;;;5051173;28;20521;-58
2021/09/05 04:17:26;;;;;;;54.37;31.10;;;14.60;1.00;;;;;;5052214;28;20973;-57
2021/09/05 04:19:52;;;;;;;50.93;31.20;;;14.60;4.90;;;;;;5055442;28;20276;-56
2021/09/05 04:22:17;;;;;;;46.23;30.07;;;14.50;10.50;;;;;;5050407;28;20986;-58
2021/09/05 04:24:43;;;;;;;53.10;32.67;;;14.50;6.10;;;;;;5048681;28;20235;-59
2021/09/05 04:27:08;;;;;;;49.40;29.90;;;14.50;5.40;;;;;;5052163;28;20211;-58
2021/09/05 04:29:34;;;;;;;50.23;28.20;;;14.60;8.50;;;;;;5055030;28;20221;-58
2021/09/05 04:31:59;;;;;;;51.27;28.80;;;14.60;9.90;;;;;;5055845;28;20216;-58
2021/09/05 04:34:25;;;;;;;52.00;30.43;;;14.60;9.20;;;;;;5049936;28;20180;-58
2021/09/05 04:36:51;;;;;;;48.50;29.20;;;14.60;4.80;;;;;;5056195;28;20274;-58
2021/09/05 04:39:16;;;;;;;43.73;29.13;;;14.50;1.00;;;;;;5049733;28;20593;-58
2021/09/05 04:41:42;;;;;;;65.33;31.60;;;14.50;4.80;;;;;;5054255;28;20220;-57
2021/09/05 04:44:08;;;;;;;50.67;28.60;;;14.50;7.60;;;;;;5067120;28;20313;-59
2021/09/05 04:46:33;;;;;;;58.03;30.87;;;14.50;4.80;;;;;;5062825;28;20181;-57
2021/09/05 04:48:59;;;;;;;51.60;28.07;;;14.60;6.10;;;;;;5050784;28;20469;-57
2021/09/05 04:51:24;;;;;;;57.80;29.17;;;14.50;1.00;;;;;;5049914;28;20199;-57
2021/09/05 04:53:50;;;;;;;49.27;28.93;;;14.50;1.00;;;;;;5049427;28;20200;-57
2021/09/05 04:56:15;;;;;;;49.27;28.10;;;14.40;1.00;;;;;;5050653;28;20200;-58
2021/09/05 04:58:41;;;;;;;42.70;26.37;;;14.40;1.00;;;;;;5050828;28;20201;-57
2021/09/05 05:01:07;;;;;;;43.07;28.73;;;14.50;1.00;;;;;;5046008;28;20204;-57
2021/09/05 05:03:32;;;;;;;43.17;27.63;;;14.50;1.00;;;;;;5050246;28;20196;-57
2021/09/05 05:05:58;;;;;;;42.60;26.17;;;14.50;1.00;;;;;;5051089;28;20279;-58
2021/09/05 05:08:23;;;;;;;43.67;26.03;;;14.50;1.00;;;;;;5061787;28;20184;-58
2021/09/05 05:10:49;;;;;;;42.70;25.33;;;14.50;1.00;;;;;;5053870;28;20702;-58
2021/09/05 05:13:14;;;;;;;39.67;25.20;;;14.50;1.00;;;;;;5049946;28;20176;-58
2021/09/05 05:15:40;;;;;;;49.03;28.70;;;14.50;1.00;;;;;;5049513;28;20566;-59
2021/09/05 05:18:05;;;;;;;40.93;25.60;;;14.50;1.00;;;;;;5050516;28;20625;-58
2021/09/05 05:20:31;;;;;;;46.67;27.20;;;14.70;1.00;;;;;;5055391;28;20185;-59
2021/09/05 05:22:57;;;;;;;44.20;26.93;;;14.80;1.00;;;;;;5048310;28;20704;-57
2021/09/05 05:25:22;;;;;;;41.70;26.10;;;14.80;1.00;;;;;;5053354;28;20268;-58
2021/09/05 05:27:48;;;;;;;44.90;27.13;;;14.90;1.00;;;;;;5050707;28;20642;-56
2021/09/05 05:30:14;;;;;;;42.90;26.50;;;14.80;1.00;;;;;;5047089;28;20212;-59
2021/09/05 05:32:40;;;;;;;37.80;25.40;;;14.80;1.00;;;;;;5048427;28;20238;-59
2021/09/05 05:35:06;;;;;;;42.40;26.53;;;14.80;1.00;;;;;;5050402;28;20220;-57
2021/09/05 05:37:32;;;;;;;39.23;25.93;;;15.00;1.00;;;;;;5046695;28;20666;-60
2021/09/05 05:39:57;;;;;;;36.43;25.60;;;15.20;1.00;;;;;;5049479;28;20525;-59
2021/09/05 05:42:23;;;;;;;40.47;24.20;;;15.20;1.00;;;;;;5050376;28;20200;-57
2021/09/05 05:44:49;;;;;;;35.90;25.20;;;15.30;1.00;;;;;;5057178;28;20190;-57
2021/09/05 05:47:14;;;;;;;35.60;23.37;;;15.20;1.00;;;;;;5050683;28;20650;-58
2021/09/05 05:49:43;;;;;;;33.40;21.87;;;15.30;1.00;;;;;;5049935;28;20217;-57
2021/09/05 05:52:09;;;;;;;36.40;23.50;;;15.20;1.00;;;;;;5050449;28;20226;-57
2021/09/05 05:54:35;;;;;;;34.83;22.77;;;15.10;1.00;;;;;;5069189;28;20526;-58
2021/09/05 05:57:00;;;;;;;39.10;23.97;;;15.00;1.00;;;;;;5057709;28;20180;-58
2021/09/05 05:59:26;;;;;;;40.83;23.23;;;15.00;1.00;;;;;;5050939;28;20213;-58
2021/09/05 06:01:51;;;;;;;36.60;23.60;;;15.10;1.00;;;;;;5049980;28;20181;-57
2021/09/05 06:04:17;;;;;;;36.53;23.90;;;15.20;1.00;;;;;;5052683;28;20185;-57
2021/09/05 06:06:42;;;;;;;36.30;24.87;;;15.20;1.00;;;;;;5060325;28;20199;-57
2021/09/05 06:09:08;;;;;;;36.83;24.73;;;15.20;1.00;;;;;;5050088;28;20269;-57
2021/09/05 06:11:33;;;;;;;33.83;21.83;;;15.30;1.00;;;;;;5049917;28;20216;-58
2021/09/05 06:13:59;;;;;;;34.67;24.23;;;15.40;1.00;;;;;;5047665;28;20180;-58
2021/09/05 06:16:25;;;;;;;33.60;23.87;;;15.40;1.00;;;;;;5060853;28;20181;-57
2021/09/05 06:18:50;;;;;;;33.13;22.30;;;15.40;1.00;;;;;;5066801;28;20318;-57
2021/09/05 06:21:16;;;;;;;35.23;21.27;;;15.50;1.00;;;;;;5053605;28;20755;-56
2021/09/05 06:23:42;;;;;;;28.33;20.93;;;15.60;1.00;;;;;;5068334;28;20223;-57
2021/09/05 06:26:07;;;;;;;33.93;22.30;;;15.60;1.00;;;;;;5049973;28;20177;-58
2021/09/05 06:28:33;;;;;;;28.47;21.50;;;15.70;1.00;;;;;;5048545;28;20198;-58
2021/09/05 06:30:58;;;;;;;33.43;21.97;;;15.80;1.00;;;;;;5060176;28;20238;-58
2021/09/05 06:33:24;;;;;;;29.80;21.23;;;15.80;1.00;;;;;;5049454;28;20220;-59
2021/09/05 06:35:50;;;;;;;27.00;20.23;;;16.00;1.00;;;;;;5049617;28;20547;-57
2021/09/05 06:38:15;;;;;;;29.33;20.80;;;16.10;1.00;;;;;;5048009;28;20182;-59
2021/09/05 06:40:41;;;;;;;28.17;20.03;;;16.10;1.00;;;;;;5051393;28;20452;-60
2021/09/05 06:43:06;;;;;;;32.40;22.90;;;16.20;1.00;;;;;;5045847;28;20198;-59
2021/09/05 06:45:32;;;;;;;27.93;21.40;;;16.30;1.00;;;;;;5040435;28;20216;-57
2021/09/05 06:47:58;;;;;;;29.47;21.50;;;16.40;1.00;;;;;;5050272;28;20752;-58
2021/09/05 06:50:24;;;;;;;29.40;21.77;;;16.40;1.00;;;;;;5049139;28;20213;-58
2021/09/05 06:52:50;;;;;;;31.90;23.10;;;16.50;1.00;;;;;;5052186;28;20473;-58
2021/09/05 06:55:15;;;;;;;28.70;21.20;;;16.40;1.00;;;;;;5058233;28;20836;-58
2021/09/05 06:57:41;;;;;;;28.50;22.03;;;16.40;1.00;;;;;;5053285;28;20197;-58
2021/09/05 07:00:07;;;;;;;27.87;20.47;;;16.50;1.00;;;;;;5052849;28;20181;-57
2021/09/05 07:02:33;;;;;;;27.70;21.57;;;16.60;1.00;;;;;;5052673;28;20179;-56
2021/09/05 07:04:59;;;;;;;27.10;21.70;;;16.60;1.00;;;;;;5052851;28;20967;-58
2021/09/05 07:07:24;;;;;;;28.37;21.33;;;16.60;1.00;;;;;;5053225;28;20819;-56
2021/09/05 07:09:50;;;;;;;28.43;20.87;;;16.70;1.00;;;;;;5052211;28;20619;-57
2021/09/05 07:12:15;;;;;;;29.13;21.63;;;16.80;1.00;;;;;;5053022;28;20257;-56
2021/09/05 07:14:41;;;;;;;25.23;19.60;;;16.80;1.00;;;;;;5051422;28;20188;-58
2021/09/05 07:17:06;;;;;;;28.23;21.20;;;16.90;1.00;;;;;;5052548;28;20290;-56
2021/09/05 07:19:32;;;;;;;27.40;21.20;;;17.00;1.00;;;;;;5052967;28;20192;-58
2021/09/05 07:21:58;;;;;;;27.13;20.67;;;17.10;1.00;;;;;;5052141;28;20186;-58
2021/09/05 07:24:23;;;;;;;26.87;21.83;;;16.90;1.00;;;;;;5052692;28;20620;-57
2021/09/05 07:26:49;;;;;;;28.17;20.20;;;17.00;1.00;;;;;;5052381;28;20187;-58
2021/09/05 07:29:17;;;;;;;27.70;21.50;;;17.00;1.00;;;;;;5052191;28;20196;-59
2021/09/05 07:31:42;;;;;;;27.93;21.07;;;17.00;1.00;;;;;;5053743;28;20542;-58
2021/09/05 07:34:08;;;;;;;32.43;21.57;;;17.20;1.00;;;;;;5052106;28;20540;-56
2021/09/05 07:36:34;;;;;;;32.67;22.63;;;17.40;1.00;;;;;;5051823;28;20227;-58
2021/09/05 07:38:59;;;;;;;29.23;20.73;;;17.50;1.00;;;;;;5053810;28;20187;-57
2021/09/05 07:41:25;;;;;;;26.63;21.20;;;17.60;1.00;;;;;;5052189;28;20452;-57
2021/09/05 07:43:50;;;;;;;27.87;22.00;;;17.60;1.00;;;;;;5052264;28;20194;-59
2021/09/05 07:46:16;;;;;;;28.33;20.70;;;17.40;1.00;;;;;;5050318;28;20210;-56
2021/09/05 07:48:41;;;;;;;29.07;21.50;;;18.10;1.00;;;;;;5051977;28;20661;-57
2021/09/05 07:51:07;;;;;;;31.57;20.87;;;19.00;1.00;;;;;;5051683;28;20180;-58
2021/09/05 07:53:33;;;;;;;26.77;20.43;;;18.90;1.00;;;;;;5051855;28;20184;-56
2021/09/05 07:55:58;;;;;;;23.90;19.27;;;17.70;1.00;;;;;;5051849;28;20549;-56
2021/09/05 07:58:27;;;;;;;27.10;22.27;;;18.20;1.00;;;;;;5052641;28;20183;-56
2021/09/05 08:00:53;;;;;;;25.93;19.77;;;18.40;1.00;;;;;;5051586;28;20169;-57
2021/09/05 08:03:18;;;;;;;28.93;20.80;;;18.60;1.00;;;;;;5051878;28;20489;-58
2021/09/05 08:05:44;;;;;;;26.83;19.80;;;18.80;1.00;;;;;;5050862;28;20189;-55
2021/09/05 08:08:09;;;;;;;22.53;17.93;;;19.00;1.00;;;;;;5051336;28;20197;-56
2021/09/05 08:10:35;;;;;;;25.43;19.50;;;19.10;1.00;;;;;;5051261;28;20212;-56
2021/09/05 08:13:00;;;;;;;24.90;18.97;;;19.40;1.00;;;;;;5060366;28;20275;-56
2021/09/05 08:15:26;;;;;;;25.50;18.97;;;19.60;1.00;;;;;;5051196;28;21110;-56
2021/09/05 08:17:51;;;;;;;25.33;18.90;;;19.60;1.00;;;;;;5051667;28;20185;-56
2021/09/05 08:20:17;;;;;;;25.30;19.47;;;19.50;1.00;;;;;;5051556;28;20190;-57
2021/09/05 08:22:46;;;;;;;25.00;18.63;;;19.60;1.00;;;;;;5051891;28;20267;-56
2021/09/05 08:25:11;;;;;;;23.13;19.17;;;19.90;1.00;;;;;;5050653;28;20191;-57
2021/09/05 08:27:37;;;;;;;25.10;19.20;;;20.30;1.00;;;;;;5050314;28;20462;-56
2021/09/05 08:30:03;;;;;;;23.47;18.83;;;20.20;1.00;;;;;;5051314;28;20207;-55
2021/09/05 08:32:29;;;;;;;26.23;18.53;;;20.30;1.00;;;;;;5050962;28;20822;-57
2021/09/05 08:34:55;;;;;;;19.97;17.87;;;20.30;1.00;;;;;;5051329;28;20467;-56
2021/09/05 08:37:21;;;;;;;21.43;18.37;;;20.30;1.00;;;;;;5052611;28;20815;-57
2021/09/05 08:39:47;;;;;;;24.10;19.20;;;20.40;1.00;;;;;;5049765;28;20447;-57
2021/09/05 08:42:13;;;;;;;22.73;18.30;;;20.50;1.00;;;;;;5049942;28;20180;-55
2021/09/05 08:44:38;;;;;;;21.27;18.53;;;20.80;1.00;;;;;;5050204;28;20183;-57
2021/09/05 08:47:05;;;;;;;26.43;21.60;;;20.80;1.00;;;;;;5051241;28;20928;-56
2021/09/05 08:49:34;;;;;;;24.70;18.93;;;21.00;1.00;;;;;;5050752;28;20665;-56
2021/09/05 08:52:00;;;;;;;22.53;18.30;;;21.10;1.00;;;;;;5051051;28;20433;-55
2021/09/05 08:54:25;;;;;;;25.13;19.93;;;21.10;1.00;;;;;;5050739;28;20980;-56
2021/09/05 08:56:53;;;;;;;25.00;19.60;;;21.00;1.00;;;;;;5051032;28;20188;-55
2021/09/05 08:59:19;;;;;;;24.73;19.70;;;21.00;1.00;;;;;;5050530;28;20176;-56
2021/09/05 09:01:56;;;;;;;25.17;19.70;;;20.90;1.00;;;;;;5050728;28;20497;-56
2021/09/05 09:04:22;;;;;;;22.17;19.10;;;20.50;1.00;;;;;;5050609;28;20465;-55
2021/09/05 09:06:48;;;;;;;25.50;19.60;;;20.00;1.00;;;;;;5050197;28;20450;-55
2021/09/05 09:09:13;;;;;;;25.73;20.30;;;20.20;1.00;;;;;;5048912;28;20474;-56
2021/09/05 09:11:53;;;;;;;26.73;20.93;;;20.20;1.00;;;;;;5056029;28;20271;-57
2021/09/05 09:14:22;;;;;;;22.00;17.73;;;20.30;1.00;;;;;;5049053;28;20425;-55
2021/09/05 09:16:48;;;;;;;22.73;18.63;;;20.60;1.00;;;;;;5049801;28;20474;-57
2021/09/05 09:19:27;;;;;;;24.50;19.37;;;21.00;1.00;;;;;;5054011;28;20516;-55
2021/09/05 09:21:55;;;;;;;23.60;18.60;;;21.10;1.00;;;;;;5052280;28;20207;-55
2021/09/05 09:24:22;;;;;;;24.77;19.80;;;21.10;1.00;;;;;;5057563;28;20424;-56
2021/09/05 09:27:03;;;;;;;25.03;18.60;;;21.30;1.00;;;;;;5052452;28;20432;-55
2021/09/05 09:29:30;;;;;;;21.60;19.30;;;21.30;1.00;;;;;;5048772;28;20452;-56
2021/09/05 09:31:58;;;;;;;25.37;18.97;;;21.40;1.00;;;;;;5051156;28;20431;-57
2021/09/05 09:34:25;;;;;;;21.13;18.93;;;21.60;1.00;;;;;;5056774;28;20735;-55
2021/09/05 09:36:58;;;;;;;23.73;18.90;;;21.60;1.00;;;;;;5049857;28;20569;-56
2021/09/05 09:39:27;;;;;;;21.47;18.30;;;21.80;1.00;;;;;;5049099;28;20462;-55
2021/09/05 09:41:52;;;;;;;20.13;17.67;;;21.90;1.00;;;;;;5048684;28;20796;-56
2021/09/05 09:44:18;;;;;;;21.93;17.57;;;21.90;1.00;;;;;;5049742;28;20440;-56
2021/09/05 09:46:44;;;;;;;20.97;18.07;;;22.00;1.00;;;;;;5050031;28;20211;-56
2021/09/05 09:49:12;;;;;;;21.03;17.47;;;22.40;1.00;;;;;;5050277;28;20228;-55
2021/09/05 09:51:39;;;;;;;19.70;17.63;;;22.30;1.00;;;;;;5050649;28;20469;-55
2021/09/05 09:54:05;;;;;;;19.57;17.40;;;22.40;1.00;;;;;;5049362;28;20885;-57
2021/09/05 09:56:31;;;;;;;20.30;17.77;;;22.20;1.00;;;;;;5048976;28;20444;-57
2021/09/05 09:59:00;;;;;;;20.20;18.00;;;22.20;1.00;;;;;;5048674;28;20454;-55
2021/09/05 10:01:28;;;;;;;20.33;18.03;;;22.20;1.00;;;;;;5049790;28;20433;-56
2021/09/05 10:03:57;;;;;;;19.37;17.33;;;22.20;1.00;;;;;;5049551;28;20447;-56
2021/09/05 10:06:26;;;;;;;20.87;17.87;;;21.50;1.00;;;;;;5049017;28;20527;-56
2021/09/05 10:08:55;;;;;;;19.43;17.10;;;22.10;1.00;;;;;;5050166;28;20446;-56
2021/09/05 10:11:22;;;;;;;19.77;17.67;;;22.20;1.00;;;;;;5050061;28;20538;-56
2021/09/05 10:13:49;;;;;;;20.60;17.80;;;22.20;1.00;;;;;;5049272;28;20793;-55
2021/09/05 10:16:15;;;;;;;19.20;17.20;;;22.40;1.00;;;;;;5050429;28;20442;-55
2021/09/05 10:18:45;;;;;;;20.80;18.27;;;22.60;1.00;;;;;;5049925;28;20433;-55
2021/09/05 10:21:16;;;;;;;21.80;18.23;;;22.70;1.00;;;;;;5049417;28;20185;-56
2021/09/05 10:23:48;;;;;;;21.53;17.43;;;22.90;1.00;;;;;;5049226;28;20444;-57
2021/09/05 10:26:14;;;;;;;18.63;16.60;;;22.80;1.00;;;;;;5047891;28;20448;-55
2021/09/05 10:28:45;;;;;;;18.30;16.33;;;23.10;1.00;;;;;;5048521;28;20410;-55
2021/09/05 10:31:20;;;;;;;19.20;17.20;;;23.30;1.00;;;;;;5049177;28;20801;-57
2021/09/05 10:33:46;;;;;;;20.53;18.37;;;23.30;1.00;;;;;;5046214;28;20448;-57
2021/09/05 10:36:13;;;;;;;21.10;17.50;;;23.30;1.00;;;;;;5049517;28;20457;-57
2021/09/05 10:38:40;;;;;;;19.30;17.40;;;23.50;1.00;;;;;;5052935;28;20180;-55
2021/09/05 10:41:08;;;;;;;18.97;16.90;;;23.60;1.00;;;;;;5053013;28;20452;-57
2021/09/05 10:43:49;;;;;;;18.27;16.30;;;23.60;1.00;;;;;;5047928;28;20846;-55
2021/09/05 10:46:23;;;;;;;18.70;16.00;;;23.70;1.00;;;;;;5049399;28;20501;-56
2021/09/05 10:48:57;;;;;;;18.60;16.70;;;24.10;1.00;;;;;;5046254;28;20937;-57
2021/09/05 10:51:33;;;;;;;18.20;16.43;;;24.30;1.00;;;;;;5048822;28;20409;-56
2021/09/05 10:54:12;;;;;;;17.93;16.13;;;24.30;1.00;;;;;;5047114;28;20733;-57
2021/09/05 10:56:44;;;;;;;17.63;15.83;;;24.00;1.00;;;;;;5050707;28;20928;-57
2021/09/05 10:59:12;;;;;;;17.63;15.93;;;24.00;1.00;;;;;;5050733;28;20549;-58
2021/09/05 11:01:38;;;;;;;16.23;14.60;;;24.10;1.00;;;;;;5066614;28;20437;-56
2021/09/05 11:04:13;;;;;;;17.80;16.00;;;24.20;1.00;;;;;;5049736;28;20443;-58
2021/09/05 11:06:43;;;;;;;19.63;17.73;;;24.40;1.00;;;;;;5049517;28;20615;-56
2021/09/05 11:09:18;;;;;;;17.43;15.57;;;24.40;1.00;;;;;;5049215;28;20446;-54
2021/09/05 11:11:53;;;;;;;17.63;15.40;;;24.40;1.00;;;;;;5049036;28;20409;-56
2021/09/05 11:14:18;;;;;;;17.10;15.17;;;24.70;1.00;;;;;;5048862;28;20422;-57
2021/09/05 11:16:44;;;;;;;16.70;15.10;;;24.70;1.00;;;;;;5049473;28;20436;-56
2021/09/05 11:19:18;;;;;;;17.07;15.47;;;25.00;1.00;;;;;;5049356;28;20191;-57
2021/09/05 11:21:44;;;;;;;16.83;15.03;;;25.00;1.00;;;;;;5048620;28;20658;-56
2021/09/05 11:24:09;;;;;;;16.10;14.50;;;25.30;1.00;;;;;;5049399;28;20417;-58
2021/09/05 11:26:35;;;;;;;16.33;14.67;;;25.40;1.00;;;;;;5048829;28;20550;-56
2021/09/05 11:29:26;;;;;;;16.03;14.37;;;25.40;1.00;;;;;;5048982;28;20212;-57
2021/09/05 11:31:58;;;;;;;17.20;15.53;;;25.60;1.00;;;;;;5047146;28;20531;-58
2021/09/05 11:34:23;;;;;;;15.93;14.33;;;25.80;1.00;;;;;;5047337;28;20529;-56
2021/09/05 11:36:49;;;;;;;15.90;14.40;;;26.00;1.00;;;;;;5048548;28;20513;-56
2021/09/05 11:39:14;;;;;;;15.53;14.03;;;26.40;1.00;;;;;;5050210;28;20188;-57
2021/09/05 11:41:41;;;;;;;15.70;14.07;;;26.50;1.00;;;;;;5052549;28;20188;-56
2021/09/05 11:44:06;;;;;;;16.33;14.77;;;26.50;1.00;;;;;;5059542;28;20662;-56
2021/09/05 11:46:32;;;;;;;15.70;14.20;;;26.20;1.00;;;;;;5051195;28;20571;-56
2021/09/05 11:49:01;;;;;;;17.17;15.50;;;26.30;1.00;;;;;;5052003;28;20665;-57
2021/09/05 11:51:27;;;;;;;16.93;15.20;;;26.10;1.00;;;;;;5051173;28;20189;-58
2021/09/05 11:53:57;;;;;;;15.50;14.10;;;25.90;1.00;;;;;;5051976;28;20930;-57
2021/09/05 11:56:22;;;;;;;15.90;14.27;;;26.00;1.00;;;;;;5051900;28;20429;-57
2021/09/05 11:58:48;;;;;;;16.50;13.93;;;26.20;1.00;;;;;;5052884;28;20421;-56
2021/09/05 12:01:13;;;;;;;14.63;12.97;;;26.50;1.00;;;;;;5050592;28;20273;-59
2021/09/05 12:03:39;;;;;;;13.80;12.50;;;26.70;1.00;;;;;;5051576;28;20219;-59
2021/09/05 12:06:08;;;;;;;14.23;12.83;;;26.70;1.00;;;;;;5051810;28;20275;-56
2021/09/05 12:08:34;;;;;;;15.30;13.80;;;26.70;1.00;;;;;;5051834;28;20186;-57
2021/09/05 12:11:02;;;;;;;13.93;12.60;;;26.50;1.00;;;;;;5050636;28;20631;-58
2021/09/05 12:13:28;;;;;;;13.70;12.33;;;26.50;1.00;;;;;;5055307;28;20221;-56
2021/09/05 12:15:53;;;;;;;14.97;13.47;;;26.60;1.00;;;;;;5052321;28;20464;-58
2021/09/05 12:18:27;;;;;;;15.00;13.60;;;26.60;1.00;;;;;;5052598;28;20421;-56
2021/09/05 12:20:59;;;;;;;14.00;12.60;;;26.40;1.00;;;;;;5050786;28;20204;-57
2021/09/05 12:23:29;;;;;;;13.63;12.33;;;26.50;1.00;;;;;;5052575;28;20502;-58
2021/09/05 12:25:57;;;;;;;13.57;12.17;;;26.70;1.00;;;;;;5055862;28;20510;-57
2021/09/05 12:28:28;;;;;;;13.63;12.37;;;26.90;1.00;;;;;;5051566;28;20709;-56
2021/09/05 12:30:57;;;;;;;13.53;12.13;;;26.90;1.00;;;;;;5051800;28;20468;-56
2021/09/05 12:33:26;;;;;;;13.77;12.47;;;26.70;1.00;;;;;;5051240;28;20445;-56